Time;durP1;ratioP1;P1;durP2;ratioP2;P2;SDS_P1;SDS_P2;PMS_P1;PMS_P2;Temp;Humidity;BMP_temperature;BMP_pressure;BME280_temperature;BME280_humidity;BME280_pressure;Samples;Min_cycle;Max_cycle;Signal;HPM_P1;HPM_P2
2021/01/30 00:00:46;;;;;;;3.40;1.10;;;6.10;99.90;;;;;;5014205;28;20456;-87
2021/01/30 00:03:14;;;;;;;1.37;0.50;;;6.30;99.90;;;;;;5014088;28;20445;-87
2021/01/30 00:05:41;;;;;;;1.30;0.73;;;6.50;99.90;;;;;;5014039;28;20500;-84
2021/01/30 00:08:08;;;;;;;1.67;0.60;;;6.20;99.90;;;;;;5014140;28;20448;-87
2021/01/30 00:10:35;;;;;;;0.83;0.50;;;6.20;99.90;;;;;;5011595;28;20862;-84
2021/01/30 00:13:02;;;;;;;1.27;0.60;;;6.50;99.90;;;;;;5013682;28;20543;-85
2021/01/30 00:15:30;;;;;;;1.60;0.60;;;6.10;99.90;;;;;;5022117;28;20460;-87
2021/01/30 00:17:57;;;;;;;5.27;0.80;;;6.20;99.90;;;;;;5033271;28;20533;-86
2021/01/30 00:20:26;;;;;;;1.03;0.93;;;6.20;99.90;;;;;;5033320;28;20981;-88
2021/01/30 00:22:53;;;;;;;0.50;0.30;;;6.20;99.90;;;;;;5033509;28;20805;-87
2021/01/30 00:25:21;;;;;;;0.63;0.47;;;6.00;99.90;;;;;;5031952;28;20499;-84
2021/01/30 00:27:48;;;;;;;1.57;0.47;;;;;;;;;;5033423;28;20448;-86
2021/01/30 00:30:17;;;;;;;3.23;0.67;;;5.90;99.90;;;;;;5032875;28;20459;-87
2021/01/30 00:32:44;;;;;;;0.47;0.30;;;6.20;99.90;;;;;;5033068;28;20822;-86
2021/01/30 00:35:12;;;;;;;1.80;0.40;;;6.10;99.90;;;;;;5032939;28;20462;-86
2021/01/30 00:37:38;;;;;;;1.90;0.60;;;;;;;;;;5006448;28;20482;-87
2021/01/30 00:40:08;;;;;;;1.77;0.40;;;5.90;99.90;;;;;;5032560;28;20447;-89
2021/01/30 00:42:34;;;;;;;1.50;0.50;;;5.90;99.90;;;;;;5033706;28;20452;-86
2021/01/30 00:45:01;;;;;;;0.73;0.40;;;5.60;99.90;;;;;;5039110;28;20491;-85
2021/01/30 00:47:27;;;;;;;0.73;0.47;;;5.90;99.90;;;;;;5035672;28;20448;-86
2021/01/30 00:49:54;;;;;;;1.00;0.63;;;5.80;99.90;;;;;;5033757;28;20950;-85
2021/01/30 00:52:24;;;;;;;0.70;0.50;;;5.90;99.90;;;;;;5033450;28;20447;-85
2021/01/30 00:54:50;;;;;;;1.73;0.30;;;6.00;99.90;;;;;;5033436;28;20825;-86
2021/01/30 00:57:17;;;;;;;1.40;0.43;;;;;;;;;;5033231;28;20475;-85
2021/01/30 00:59:43;;;;;;;0.87;0.50;;;5.90;99.90;;;;;;5033624;28;20439;-84
2021/01/30 01:02:09;;;;;;;3.53;0.70;;;6.10;99.90;;;;;;5036600;28;20512;-88
2021/01/30 01:04:36;;;;;;;0.40;0.40;;;6.30;99.90;;;;;;5038594;28;20475;-86
2021/01/30 01:07:03;;;;;;;0.93;0.50;;;6.40;99.90;;;;;;5033843;28;20447;-91
2021/01/30 01:09:31;;;;;;;2.07;0.40;;;6.70;99.90;;;;;;5032080;28;20456;-86
2021/01/30 01:11:57;;;;;;;0.40;0.30;;;6.20;99.90;;;;;;5033480;28;20439;-90
2021/01/30 01:14:26;;;;;;;1.37;0.53;;;6.20;99.90;;;;;;5031044;28;20444;-89
2021/01/30 01:16:52;;;;;;;0.40;0.23;;;6.20;99.90;;;;;;5033656;28;20462;-85
2021/01/30 01:19:19;;;;;;;0.70;0.70;;;6.30;99.90;;;;;;5033698;28;20467;-87
2021/01/30 01:21:49;;;;;;;1.73;0.40;;;6.30;99.90;;;;;;5033587;28;20451;-86
2021/01/30 01:24:16;;;;;;;0.50;0.50;;;6.10;99.90;;;;;;5032420;28;20819;-90
2021/01/30 01:26:44;;;;;;;1.17;0.77;;;5.90;99.90;;;;;;5033559;28;20448;-90
2021/01/30 01:29:10;;;;;;;4.27;0.63;;;;;;;;;;5033083;28;20935;-85
2021/01/30 01:31:37;;;;;;;1.03;0.47;;;6.20;99.90;;;;;;5033366;28;20789;-91
2021/01/30 01:34:03;;;;;;;0.50;0.30;;;;;;;;;;5033216;28;20451;-91
2021/01/30 01:36:29;;;;;;;2.93;0.53;;;6.70;99.90;;;;;;5033582;28;20428;-92
2021/01/30 01:38:56;;;;;;;1.40;0.53;;;6.00;99.90;;;;;;5032228;28;20454;-92
2021/01/30 01:41:23;;;;;;;1.27;0.67;;;6.00;99.90;;;;;;5033751;28;20812;-85
2021/01/30 01:43:51;;;;;;;1.90;0.50;;;5.60;99.90;;;;;;5033274;28;20474;-86
2021/01/30 01:46:24;;;;;;;1.33;0.57;;;5.70;99.90;;;;;;5033019;28;20947;-88
2021/01/30 01:48:57;;;;;;;0.40;0.23;;;6.20;99.90;;;;;;5033006;28;20447;-86
2021/01/30 01:51:29;;;;;;;3.03;0.60;;;6.00;99.90;;;;;;5033322;28;20550;-88
2021/01/30 01:54:00;;;;;;;1.17;0.40;;;5.90;99.90;;;;;;5031974;28;20459;-87
2021/01/30 01:56:30;;;;;;;1.60;0.30;;;5.90;99.90;;;;;;5033291;28;20452;-89
2021/01/30 01:59:02;;;;;;;0.40;0.40;;;6.00;99.90;;;;;;5032924;28;20487;-85
2021/01/30 02:01:32;;;;;;;0.80;0.30;;;5.70;99.90;;;;;;5032968;28;20447;-90
2021/01/30 02:03:59;;;;;;;0.90;0.40;;;5.80;99.90;;;;;;5032823;28;20529;-87
2021/01/30 02:06:25;;;;;;;0.60;0.30;;;;;;;;;;5030694;28;20455;-88
2021/01/30 02:08:52;;;;;;;3.47;0.47;;;6.00;99.90;;;;;;5035101;28;20465;-89
2021/01/30 02:11:19;;;;;;;2.00;0.53;;;6.00;99.90;;;;;;5036145;28;20447;-86
2021/01/30 02:13:50;;;;;;;4.00;0.90;;;5.80;99.90;;;;;;5041527;28;20478;-84
2021/01/30 02:16:29;;;;;;;0.70;0.40;;;5.80;99.90;;;;;;5042154;28;20443;-89
2021/01/30 02:19:12;;;;;;;0.37;0.23;;;6.00;99.90;;;;;;5036295;28;20536;-88
2021/01/30 02:22:24;;;;;;;2.17;0.40;;;5.70;99.90;;;;;;5036485;28;20518;-86
2021/01/30 02:25:22;;;;;;;0.57;0.30;;;5.80;99.90;;;;;;5001476;28;20488;-84
2021/01/30 02:28:17;;;;;;;0.40;0.30;;;5.80;99.90;;;;;;5042699;28;20447;-84
2021/01/30 02:31:08;;;;;;;4.13;0.30;;;5.80;99.90;;;;;;5023093;28;20466;-87
2021/01/30 02:34:09;;;;;;;0.50;0.30;;;5.70;99.90;;;;;;5033516;28;20459;-85
2021/01/30 02:36:43;;;;;;;0.50;0.40;;;5.90;99.90;;;;;;5036173;28;20513;-92
2021/01/30 02:39:14;;;;;;;0.60;0.40;;;5.80;99.90;;;;;;5035007;28;20504;-85
2021/01/30 02:41:47;;;;;;;0.40;0.30;;;5.20;99.90;;;;;;5036009;28;20462;-86
2021/01/30 02:44:16;;;;;;;0.40;0.30;;;5.60;99.90;;;;;;5035928;28;20482;-85
2021/01/30 02:46:48;;;;;;;0.40;0.30;;;5.30;99.90;;;;;;5036042;28;20439;-85
2021/01/30 02:49:20;;;;;;;0.50;0.30;;;5.50;99.90;;;;;;5034184;28;20538;-85
2021/01/30 02:51:54;;;;;;;1.23;0.40;;;5.40;99.90;;;;;;5036201;28;20448;-90
2021/01/30 02:54:21;;;;;;;0.40;0.20;;;5.40;99.90;;;;;;5033892;28;20450;-90
2021/01/30 02:56:49;;;;;;;1.53;0.40;;;5.60;99.90;;;;;;5035655;28;20849;-85
2021/01/30 02:59:19;;;;;;;1.27;0.30;;;5.50;99.90;;;;;;5036116;28;20454;-92
2021/01/30 03:01:45;;;;;;;0.50;0.30;;;5.30;99.90;;;;;;5035893;28;20448;-85
2021/01/30 03:04:15;;;;;;;0.50;0.37;;;5.40;99.90;;;;;;5035687;28;20491;-90
2021/01/30 03:06:49;;;;;;;0.53;0.43;;;5.30;99.90;;;;;;5035590;28;20478;-85
2021/01/30 03:09:22;;;;;;;0.67;0.40;;;5.40;99.90;;;;;;5034052;28;20443;-84
2021/01/30 03:11:58;;;;;;;0.40;0.20;;;5.30;99.90;;;;;;5035449;28;20455;-91
2021/01/30 03:14:28;;;;;;;0.50;0.37;;;5.60;99.90;;;;;;5035674;28;20443;-89
2021/01/30 03:16:56;;;;;;;0.80;0.40;;;5.30;99.90;;;;;;5035632;28;20472;-90
2021/01/30 03:19:25;;;;;;;0.47;0.30;;;5.40;99.90;;;;;;5035631;28;20870;-89
2021/01/30 03:21:58;;;;;;;0.40;0.30;;;5.20;99.90;;;;;;5035674;28;20511;-85
2021/01/30 03:24:26;;;;;;;0.77;0.60;;;5.40;99.90;;;;;;5034573;28;20479;-88
2021/01/30 03:26:53;;;;;;;0.43;0.30;;;;;;;;;;5034780;28;20562;-86
2021/01/30 03:29:19;;;;;;;0.50;0.40;;;5.40;99.90;;;;;;5035428;28;20447;-90
2021/01/30 03:31:47;;;;;;;0.50;0.30;;;5.60;99.90;;;;;;5035290;28;20966;-90
2021/01/30 03:34:14;;;;;;;1.10;0.60;;;5.40;99.90;;;;;;5035045;28;20448;-92
2021/01/30 03:36:41;;;;;;;0.47;0.30;;;5.70;99.90;;;;;;5035045;28;20443;-86
2021/01/30 03:39:09;;;;;;;0.50;0.40;;;5.60;99.90;;;;;;5033937;28;20455;-87
2021/01/30 03:41:35;;;;;;;0.80;0.40;;;5.80;99.90;;;;;;5035057;28;20458;-91
2021/01/30 03:44:02;;;;;;;0.93;0.43;;;5.60;99.90;;;;;;5043869;28;20510;-88
2021/01/30 03:46:28;;;;;;;1.43;0.30;;;;;;;;;;5037844;28;20505;-85
2021/01/30 03:48:55;;;;;;;1.63;0.63;;;;;;;;;;5033183;28;20466;-86
2021/01/30 03:51:21;;;;;;;0.60;0.40;;;;;;;;;;5034989;28;20447;-86
2021/01/30 03:53:48;;;;;;;1.93;0.43;;;;;;;;;;5034374;28;20439;-87
2021/01/30 03:56:15;;;;;;;1.50;0.50;;;5.50;99.90;;;;;;5035763;28;20446;-85
2021/01/30 03:58:44;;;;;;;1.60;0.53;;;5.80;99.90;;;;;;5035337;28;20471;-90
2021/01/30 04:01:10;;;;;;;0.60;0.30;;;5.60;99.90;;;;;;5035871;28;20530;-91
2021/01/30 04:03:36;;;;;;;1.03;0.30;;;5.40;99.90;;;;;;5036419;28;20443;-88
2021/01/30 04:06:03;;;;;;;1.40;0.40;;;5.80;99.90;;;;;;5035996;28;20492;-89
2021/01/30 04:08:30;;;;;;;0.40;0.20;;;;;;;;;;5033408;28;20513;-84
2021/01/30 04:10:56;;;;;;;1.80;0.43;;;;;;;;;;5034336;28;20467;-88
2021/01/30 04:13:23;;;;;;;0.60;0.60;;;5.60;99.90;;;;;;5034203;28;20451;-88
2021/01/30 04:15:49;;;;;;;0.40;0.30;;;5.20;99.90;;;;;;5034099;28;20451;-87
2021/01/30 04:18:16;;;;;;;1.07;0.67;;;5.50;99.90;;;;;;5034184;28;20467;-89
2021/01/30 04:20:42;;;;;;;0.50;0.30;;;5.60;99.90;;;;;;5034441;28;20452;-88
2021/01/30 04:23:10;;;;;;;0.53;0.40;;;5.80;99.90;;;;;;5033654;28;20469;-85
2021/01/30 04:25:36;;;;;;;0.50;0.30;;;5.80;99.90;;;;;;5033147;28;20494;-91
2021/01/30 04:28:05;;;;;;;0.50;0.40;;;5.50;99.90;;;;;;5038928;28;20455;-86
2021/01/30 04:30:33;;;;;;;1.03;0.40;;;5.70;99.90;;;;;;5037898;28;20947;-89
2021/01/30 04:33:01;;;;;;;2.40;0.67;;;5.40;99.90;;;;;;5034712;28;20455;-85
2021/01/30 04:35:31;;;;;;;3.50;0.60;;;5.60;99.90;;;;;;5034376;28;20459;-88
2021/01/30 04:37:57;;;;;;;1.07;0.50;;;5.70;99.90;;;;;;5032456;28;20457;-90
2021/01/30 04:40:31;;;;;;;1.90;0.60;;;5.60;99.90;;;;;;5033104;28;20454;-85
2021/01/30 04:43:09;;;;;;;1.07;0.50;;;5.90;99.90;;;;;;5042787;28;20478;-86
2021/01/30 04:45:48;;;;;;;1.03;0.40;;;5.70;99.90;;;;;;5040936;28;20486;-89
2021/01/30 04:48:28;;;;;;;3.13;0.50;;;5.90;99.90;;;;;;5033809;28;20451;-84
2021/01/30 04:51:08;;;;;;;1.20;1.00;;;5.60;99.90;;;;;;5034166;28;20458;-84
2021/01/30 04:54:02;;;;;;;3.70;0.50;;;5.90;99.90;;;;;;5034048;28;20792;-86
2021/01/30 04:56:37;;;;;;;2.70;0.63;;;5.60;99.90;;;;;;5035674;28;20455;-90
2021/01/30 04:59:11;;;;;;;1.63;0.43;;;5.60;99.90;;;;;;5035406;28;20462;-85
2021/01/30 05:01:46;;;;;;;2.03;0.60;;;6.30;99.90;;;;;;5034000;28;20458;-85
2021/01/30 05:04:19;;;;;;;3.90;0.30;;;5.60;99.90;;;;;;5033830;28;20478;-90
2021/01/30 05:06:58;;;;;;;3.80;0.80;;;5.80;99.90;;;;;;5033816;28;20443;-92
2021/01/30 05:09:32;;;;;;;0.40;0.30;;;6.00;99.90;;;;;;5032653;28;20443;-85
2021/01/30 05:12:03;;;;;;;1.60;0.77;;;5.70;99.90;;;;;;5036021;28;20451;-85
2021/01/30 05:14:35;;;;;;;1.50;0.63;;;5.50;99.90;;;;;;5043810;28;20440;-92
2021/01/30 05:17:07;;;;;;;1.57;0.53;;;6.30;99.90;;;;;;5034970;28;20471;-89
2021/01/30 05:19:39;;;;;;;6.03;0.50;;;5.60;99.90;;;;;;5033841;28;20436;-87
2021/01/30 05:22:08;;;;;;;4.63;0.70;;;5.90;99.90;;;;;;5033095;28;20444;-90
2021/01/30 05:24:35;;;;;;;3.03;0.97;;;;;;;;;;5033205;28;20491;-90
2021/01/30 05:27:19;;;;;;;3.17;0.63;;;5.60;99.90;;;;;;5033875;28;20448;-89
2021/01/30 05:29:53;;;;;;;3.80;0.83;;;5.50;99.90;;;;;;5033526;28;20443;-86
2021/01/30 05:32:29;;;;;;;2.07;0.77;;;6.20;99.90;;;;;;5033671;28;21092;-89
2021/01/30 05:34:58;;;;;;;3.63;1.23;;;5.60;99.90;;;;;;5033376;28;20448;-88
2021/01/30 05:37:30;;;;;;;3.67;0.87;;;5.60;99.90;;;;;;5033454;28;20447;-85
2021/01/30 05:40:18;;;;;;;5.53;1.03;;;5.60;99.90;;;;;;5032451;28;20458;-86
2021/01/30 05:42:56;;;;;;;6.20;1.03;;;5.70;99.90;;;;;;5035295;28;20443;-90
2021/01/30 05:45:35;;;;;;;4.13;0.83;;;5.80;99.90;;;;;;5036772;28;20978;-88
2021/01/30 05:48:03;;;;;;;2.40;0.83;;;5.50;99.90;;;;;;5037225;28;20804;-85
2021/01/30 05:50:37;;;;;;;2.20;1.03;;;5.50;99.90;;;;;;5037224;28;20447;-89
2021/01/30 05:53:05;;;;;;;3.07;1.20;;;5.70;99.90;;;;;;5037015;28;20452;-85
2021/01/30 05:55:33;;;;;;;1.73;0.70;;;5.80;99.90;;;;;;5036000;28;20447;-86
2021/01/30 05:58:04;;;;;;;10.93;1.07;;;5.90;99.90;;;;;;5036697;28;20487;-89
2021/01/30 06:00:31;;;;;;;3.63;2.07;;;;;;;;;;5036655;28;20470;-88
2021/01/30 06:03:06;;;;;;;2.00;0.93;;;5.20;99.90;;;;;;5036929;28;20459;-86
2021/01/30 06:05:34;;;;;;;6.53;0.93;;;5.70;99.90;;;;;;5032504;28;20544;-90
2021/01/30 06:08:19;;;;;;;5.33;1.00;;;5.70;99.90;;;;;;5037067;28;20454;-86
2021/01/30 06:10:48;;;;;;;2.80;0.90;;;5.60;99.90;;;;;;5036161;28;20446;-93
2021/01/30 06:13:17;;;;;;;0.70;0.60;;;5.90;99.90;;;;;;5037074;28;20790;-86
2021/01/30 06:15:46;;;;;;;6.10;0.70;;;5.80;99.90;;;;;;5036595;28;20872;-86
2021/01/30 06:18:24;;;;;;;1.87;0.67;;;6.10;99.90;;;;;;5002696;28;20451;-91
2021/01/30 06:21:04;;;;;;;1.00;0.90;;;5.90;99.90;;;;;;5036400;28;20824;-87
2021/01/30 06:23:31;;;;;;;1.50;0.70;;;5.60;99.90;;;;;;5035542;28;20464;-88
2021/01/30 06:26:20;;;;;;;6.13;1.23;;;5.50;99.90;;;;;;5036174;28;20568;-85
2021/01/30 06:28:55;;;;;;;6.20;1.30;;;5.70;99.90;;;;;;5036715;28;20432;-86
2021/01/30 06:31:26;;;;;;;5.60;1.80;;;5.70;99.90;;;;;;5036267;28;20448;-90
2021/01/30 06:33:57;;;;;;;4.83;0.87;;;5.80;99.90;;;;;;5035848;28;21000;-86
2021/01/30 06:36:27;;;;;;;2.57;1.30;;;6.00;99.90;;;;;;5036236;28;20452;-85
2021/01/30 06:38:59;;;;;;;2.33;0.80;;;5.60;99.90;;;;;;5035225;28;20443;-88
2021/01/30 06:41:29;;;;;;;15.13;4.27;;;5.60;99.90;;;;;;5040757;28;20440;-85
2021/01/30 06:44:06;;;;;;;23.43;12.43;;;5.70;99.90;;;;;;5044765;28;20452;-90
2021/01/30 06:46:33;;;;;;;9.50;1.90;;;5.50;99.90;;;;;;5035763;28;20440;-86
2021/01/30 06:49:17;;;;;;;9.00;3.17;;;5.70;99.90;;;;;;5035964;28;20502;-85
2021/01/30 06:51:43;;;;;;;9.63;4.00;;;;;;;;;;5036257;28;20459;-88
2021/01/30 06:54:19;;;;;;;10.43;1.10;;;5.90;99.90;;;;;;5034629;28;20452;-90
2021/01/30 06:56:53;;;;;;;2.80;1.30;;;5.60;99.90;;;;;;5035996;28;20455;-92
2021/01/30 06:59:27;;;;;;;5.93;1.30;;;6.00;99.90;;;;;;5046203;28;20526;-85
2021/01/30 07:01:53;;;;;;;21.57;9.57;;;5.90;99.90;;;;;;5045452;28;20451;-89
2021/01/30 07:04:53;;;;;;;7.60;4.03;;;5.80;99.90;;;;;;5035775;28;20954;-89
2021/01/30 07:07:23;;;;;;;20.13;9.80;;;5.90;99.90;;;;;;5035730;28;20953;-87
2021/01/30 07:10:14;;;;;;;19.30;9.43;;;5.30;99.90;;;;;;5034424;28;20451;-86
2021/01/30 07:12:51;;;;;;;20.13;12.50;;;5.90;99.90;;;;;;5035285;28;20474;-89
2021/01/30 07:15:23;;;;;;;7.73;6.13;;;5.90;99.90;;;;;;5035032;28;20470;-85
2021/01/30 07:18:20;;;;;;;6.00;1.70;;;5.60;99.90;;;;;;5034942;28;20450;-87
2021/01/30 07:21:10;;;;;;;4.03;1.30;;;5.80;99.90;;;;;;5035004;28;20443;-84
2021/01/30 07:23:42;;;;;;;8.00;2.60;;;5.90;99.90;;;;;;5033917;28;20463;-88
2021/01/30 07:26:14;;;;;;;4.83;1.93;;;5.70;99.90;;;;;;5035140;28;20491;-88
2021/01/30 07:28:43;;;;;;;6.00;1.73;;;5.00;99.90;;;;;;5035055;28;20447;-88
2021/01/30 07:31:14;;;;;;;4.50;1.70;;;5.60;99.90;;;;;;5034603;28;20455;-85
2021/01/30 07:33:49;;;;;;;4.23;1.40;;;5.60;99.90;;;;;;5035137;28;20505;-87
2021/01/30 07:36:22;;;;;;;5.87;2.60;;;5.70;99.90;;;;;;5034879;28;20448;-87
2021/01/30 07:38:56;;;;;;;4.40;1.20;;;5.60;99.90;;;;;;5034221;28;20817;-89
2021/01/30 07:41:35;;;;;;;4.93;1.00;;;6.00;99.90;;;;;;5034414;28;20448;-87
2021/01/30 07:44:06;;;;;;;3.50;1.30;;;5.70;99.90;;;;;;5035066;28;20754;-89
2021/01/30 07:46:38;;;;;;;9.67;2.97;;;5.70;99.90;;;;;;5035832;28;20455;-87
2021/01/30 07:49:11;;;;;;;4.03;1.90;;;6.00;99.90;;;;;;5035541;28;20444;-90
2021/01/30 07:51:46;;;;;;;7.97;2.40;;;5.70;99.90;;;;;;5035919;28;20462;-90
2021/01/30 07:54:13;;;;;;;2.70;0.80;;;5.80;99.90;;;;;;5033992;28;20451;-92
2021/01/30 07:56:54;;;;;;;9.70;2.20;;;6.50;99.90;;;;;;5030938;28;20452;-86
2021/01/30 07:59:30;;;;;;;2.17;1.03;;;5.70;99.90;;;;;;5014642;28;20456;-88
2021/01/30 08:02:27;;;;;;;8.53;1.40;;;5.80;99.90;;;;;;5014932;28;20452;-91
2021/01/30 08:05:16;;;;;;;4.30;1.03;;;6.00;99.90;;;;;;4994070;28;21088;-91
2021/01/30 08:07:53;;;;;;;6.67;2.47;;;6.10;99.90;;;;;;5014897;28;20544;-91
2021/01/30 08:10:25;;;;;;;11.07;4.70;;;6.10;99.90;;;;;;5017714;28;20449;-84
2021/01/30 08:13:18;;;;;;;4.40;1.50;;;6.00;99.90;;;;;;5019943;28;20453;-88
2021/01/30 08:15:48;;;;;;;1.00;0.63;;;6.20;99.90;;;;;;5014851;28;20514;-89
2021/01/30 08:18:24;;;;;;;3.37;1.67;;;6.30;99.90;;;;;;5014456;28;20448;-89
2021/01/30 08:20:56;;;;;;;11.20;2.17;;;6.50;99.90;;;;;;5014743;28;20484;-89
2021/01/30 08:23:43;;;;;;;4.33;1.73;;;6.40;99.90;;;;;;5014198;28;20444;-91
2021/01/30 08:26:16;;;;;;;4.70;1.20;;;6.40;99.90;;;;;;5013592;28;20502;-89
2021/01/30 08:28:52;;;;;;;12.27;1.90;;;6.30;99.90;;;;;;5014005;28;20460;-86
2021/01/30 08:31:33;;;;;;;11.10;2.73;;;6.30;99.90;;;;;;5013786;28;20452;-88
2021/01/30 08:34:09;;;;;;;7.37;2.10;;;6.30;99.90;;;;;;5013970;28;20440;-87
2021/01/30 08:36:39;;;;;;;10.13;3.90;;;6.30;99.90;;;;;;5014231;28;20448;-89
2021/01/30 08:39:22;;;;;;;12.77;1.97;;;6.10;99.90;;;;;;5012733;28;20820;-86
2021/01/30 08:41:52;;;;;;;10.27;3.10;;;6.20;99.90;;;;;;5013407;28;20451;-88
2021/01/30 08:44:29;;;;;;;7.80;3.00;;;6.20;99.90;;;;;;5013871;28;20526;-88
2021/01/30 08:47:15;;;;;;;4.43;2.20;;;7.00;99.90;;;;;;5014208;28;20443;-90
2021/01/30 08:49:55;;;;;;;1.97;1.37;;;6.00;99.90;;;;;;5013159;28;20506;-88
2021/01/30 08:52:33;;;;;;;3.90;1.63;;;6.10;99.90;;;;;;5013379;28;20463;-86
2021/01/30 08:55:35;;;;;;;4.77;1.60;;;6.50;99.90;;;;;;5012738;28;20452;-91
2021/01/30 08:58:02;;;;;;;17.73;4.37;;;6.30;99.90;;;;;;5013547;28;20486;-87
2021/01/30 09:01:01;;;;;;;4.47;1.37;;;6.10;99.90;;;;;;5013658;28;20449;-88
2021/01/30 09:03:47;;;;;;;9.47;3.43;;;6.50;99.90;;;;;;5013929;28;20519;-88
2021/01/30 09:06:49;;;;;;;7.73;2.87;;;6.50;99.90;;;;;;5013425;28;20546;-88
2021/01/30 09:09:17;;;;;;;8.10;2.13;;;6.80;99.90;;;;;;5012108;28;20872;-87
2021/01/30 09:11:46;;;;;;;7.57;1.70;;;6.20;99.90;;;;;;5013276;28;20452;-91
2021/01/30 09:14:39;;;;;;;6.50;1.57;;;6.30;99.90;;;;;;5013565;28;20823;-87
2021/01/30 09:17:39;;;;;;;4.73;2.40;;;6.50;99.90;;;;;;5022346;28;20459;-89
2021/01/30 09:20:26;;;;;;;7.80;1.73;;;6.60;99.90;;;;;;5017132;28;20460;-85
2021/01/30 09:23:06;;;;;;;9.30;1.80;;;5.90;99.90;;;;;;5017185;28;20501;-85
2021/01/30 09:25:51;;;;;;;5.17;1.50;;;6.50;99.90;;;;;;5015819;28;20557;-84
2021/01/30 09:28:22;;;;;;;2.37;1.33;;;6.70;99.90;;;;;;5017807;28;20444;-87
2021/01/30 09:30:55;;;;;;;11.20;2.30;;;6.30;99.90;;;;;;5017121;28;20506;-85
2021/01/30 09:33:26;;;;;;;3.23;1.10;;;6.30;99.90;;;;;;5016871;28;20459;-89
2021/01/30 09:36:01;;;;;;;12.83;2.10;;;6.60;99.90;;;;;;5017041;28;20954;-87
2021/01/30 09:38:33;;;;;;;9.83;2.50;;;6.60;99.90;;;;;;5016643;28;20460;-86
2021/01/30 09:41:08;;;;;;;3.00;1.40;;;6.90;99.90;;;;;;5021379;28;20459;-87
2021/01/30 09:43:35;;;;;;;3.33;1.40;;;6.80;99.90;;;;;;5017036;28;20807;-86
2021/01/30 09:46:04;;;;;;;9.03;2.00;;;6.90;99.90;;;;;;5017191;28;20926;-88
2021/01/30 09:48:31;;;;;;;7.00;0.83;;;;;;;;;;5016379;28;20456;-86
2021/01/30 09:51:00;;;;;;;3.17;1.33;;;6.90;99.90;;;;;;5017592;28;20514;-85
2021/01/30 09:53:32;;;;;;;7.47;1.43;;;6.80;99.90;;;;;;5016639;28;20547;-87
2021/01/30 09:56:08;;;;;;;2.77;1.00;;;6.80;99.90;;;;;;5016414;28;20460;-85
2021/01/30 09:58:37;;;;;;;3.87;0.90;;;6.80;99.90;;;;;;5016936;28;20482;-88
2021/01/30 10:01:07;;;;;;;8.40;1.40;;;7.00;99.90;;;;;;5016530;28;20444;-86
2021/01/30 10:03:38;;;;;;;2.60;1.10;;;6.90;99.90;;;;;;5016350;28;20455;-85
2021/01/30 10:06:15;;;;;;;10.57;2.13;;;6.70;99.90;;;;;;5016037;28;20542;-86
2021/01/30 10:08:42;;;;;;;10.93;3.03;;;;;;;;;;5015207;28;20444;-88
2021/01/30 10:11:11;;;;;;;6.03;1.93;;;6.80;99.90;;;;;;5016214;28;20448;-86
2021/01/30 10:13:41;;;;;;;3.80;1.40;;;6.80;99.90;;;;;;5016209;28;20452;-87
2021/01/30 10:16:14;;;;;;;5.67;1.37;;;6.70;99.90;;;;;;5016360;28;20452;-85
2021/01/30 10:18:44;;;;;;;6.33;1.70;;;6.80;99.90;;;;;;5015735;28;20844;-87
2021/01/30 10:21:11;;;;;;;6.00;2.90;;;6.60;99.90;;;;;;5015652;28;20461;-88
2021/01/30 10:23:40;;;;;;;2.20;1.13;;;6.70;99.90;;;;;;5014960;28;20480;-89
2021/01/30 10:26:10;;;;;;;4.77;1.73;;;6.80;99.90;;;;;;5015889;28;20507;-88
2021/01/30 10:28:42;;;;;;;9.83;1.83;;;6.30;99.90;;;;;;5015604;28;20453;-87
2021/01/30 10:31:10;;;;;;;6.93;1.63;;;6.50;99.90;;;;;;5015783;28;20460;-89
2021/01/30 10:33:39;;;;;;;11.50;2.60;;;6.80;99.90;;;;;;5015352;28;20453;-86
2021/01/30 10:36:06;;;;;;;17.20;4.27;;;6.80;99.90;;;;;;5015994;28;20982;-86
2021/01/30 10:38:33;;;;;;;16.50;6.40;;;;;;;;;;5015240;28;20503;-86
2021/01/30 10:41:02;;;;;;;24.83;9.30;;;6.90;99.90;;;;;;5015998;28;20452;-90
2021/01/30 10:43:32;;;;;;;32.23;14.23;;;6.70;99.90;;;;;;5015811;28;20448;-87
2021/01/30 10:46:01;;;;;;;16.53;8.13;;;6.90;99.90;;;;;;5015977;28;20503;-88
2021/01/30 10:48:32;;;;;;;8.80;3.23;;;6.80;99.90;;;;;;5015843;28;20452;-88
2021/01/30 10:51:03;;;;;;;19.50;5.07;;;6.40;99.90;;;;;;5015673;28;20457;-84
2021/01/30 10:53:32;;;;;;;7.93;2.33;;;6.80;99.90;;;;;;5015579;28;20479;-86
2021/01/30 10:55:59;;;;;;;16.70;2.70;;;6.40;99.90;;;;;;5017008;28;20460;-86
2021/01/30 10:58:33;;;;;;;13.00;7.17;;;6.70;99.90;;;;;;5015881;28;20482;-87
2021/01/30 11:01:05;;;;;;;11.17;4.00;;;6.90;99.90;;;;;;5017548;28;20444;-90
2021/01/30 11:03:43;;;;;;;12.73;5.93;;;7.10;99.90;;;;;;5017157;28;20502;-87
2021/01/30 11:06:21;;;;;;;8.37;5.23;;;7.00;99.90;;;;;;5015207;28;20496;-85
2021/01/30 11:08:47;;;;;;;4.73;1.63;;;;;;;;;;5031295;28;20816;-89
2021/01/30 11:11:23;;;;;;;9.07;2.00;;;6.80;99.90;;;;;;5042508;28;20452;-85
2021/01/30 11:13:50;;;;;;;11.40;2.30;;;7.30;99.90;;;;;;5025913;28;20924;-94
2021/01/30 11:16:21;;;;;;;12.37;2.47;;;7.30;99.90;;;;;;5018488;28;20447;-91
2021/01/30 11:18:50;;;;;;;11.10;2.13;;;7.20;99.90;;;;;;5031799;28;20483;-89
2021/01/30 11:21:30;;;;;;;9.13;2.03;;;7.00;99.90;;;;;;5034577;28;20549;-86
2021/01/30 11:23:59;;;;;;;7.23;2.10;;;;;;;;;;5018028;28;20463;-82
2021/01/30 11:26:40;;;;;;;10.17;2.53;;;7.00;99.90;;;;;;5014462;28;21073;-86
2021/01/30 11:29:23;;;;;;;12.67;4.20;;;7.20;99.90;;;;;;5024423;28;20817;-86
2021/01/30 11:31:50;;;;;;;21.60;14.57;;;6.90;99.90;;;;;;5025649;28;20445;-84
2021/01/30 11:34:16;;;;;;;5.50;2.47;;;;;;;;;;5014477;28;20926;-83
2021/01/30 11:36:45;;;;;;;29.20;16.30;;;6.70;99.90;;;;;;5014461;28;20459;-85
2021/01/30 11:39:12;;;;;;;13.30;5.50;;;;;;;;;;5012133;28;20444;-85
2021/01/30 11:41:39;;;;;;;7.97;3.60;;;;;;;;;;5014700;28;20480;-84
2021/01/30 11:44:05;;;;;;;13.10;3.90;;;7.10;99.90;;;;;;5014309;28;20944;-84
2021/01/30 11:46:32;;;;;;;8.77;2.50;;;;;;;;;;5013870;28;20496;-85
2021/01/30 11:48:59;;;;;;;6.87;2.03;;;6.90;99.90;;;;;;5015111;28;20456;-88
2021/01/30 11:51:28;;;;;;;3.57;2.10;;;6.90;99.90;;;;;;5014322;28;20444;-83
2021/01/30 11:53:55;;;;;;;7.77;3.00;;;;;;;;;;5014974;28;20962;-83
2021/01/30 11:56:21;;;;;;;4.93;3.43;;;6.90;99.90;;;;;;5036084;28;20444;-87
2021/01/30 11:58:48;;;;;;;7.77;5.43;;;7.20;99.90;;;;;;5022648;28;20479;-92
2021/01/30 12:01:15;;;;;;;6.97;4.43;;;7.00;99.90;;;;;;5016956;28;20537;-86
2021/01/30 12:03:41;;;;;;;4.57;3.53;;;6.90;99.90;;;;;;5017585;28;20470;-83
2021/01/30 12:06:09;;;;;;;9.23;4.83;;;5.20;99.90;;;;;;5033456;28;20491;-82
2021/01/30 12:08:35;;;;;;;10.87;4.30;;;6.60;99.90;;;;;;5015110;28;20558;-85
2021/01/30 12:11:02;;;;;;;10.13;3.40;;;;;;;;;;5032935;28;20498;-83
2021/01/30 12:13:29;;;;;;;7.03;3.57;;;;;;;;;;5031244;28;20959;-86
2021/01/30 12:15:56;;;;;;;10.23;5.87;;;;;;;;;;5014081;28;20452;-83
2021/01/30 12:18:22;;;;;;;7.30;4.37;;;6.30;99.90;;;;;;5013870;28;20472;-85
2021/01/30 12:20:51;;;;;;;6.70;2.70;;;7.00;99.90;;;;;;5013833;28;20480;-85
2021/01/30 12:23:19;;;;;;;10.77;3.07;;;7.40;99.90;;;;;;5013976;28;20482;-87
2021/01/30 12:25:46;;;;;;;7.20;3.93;;;6.70;99.90;;;;;;5012931;28;20519;-88
2021/01/30 12:28:17;;;;;;;11.37;4.80;;;6.80;99.90;;;;;;5013739;28;20807;-84
2021/01/30 12:30:44;;;;;;;9.27;7.33;;;;;;;;;;5014755;28;20460;-86
2021/01/30 12:33:10;;;;;;;9.20;4.30;;;7.00;99.90;;;;;;5014038;28;20555;-85
2021/01/30 12:35:37;;;;;;;7.73;2.53;;;;;;;;;;5013572;28;20445;-85
2021/01/30 12:38:05;;;;;;;10.80;2.53;;;6.90;99.90;;;;;;5015368;28;20449;-85
2021/01/30 12:40:35;;;;;;;5.40;2.20;;;7.20;99.90;;;;;;5023778;28;20436;-87
2021/01/30 12:43:01;;;;;;;7.80;2.30;;;6.70;99.90;;;;;;5016445;28;20498;-88
2021/01/30 12:45:28;;;;;;;6.37;1.50;;;6.40;99.90;;;;;;5013308;28;20484;-83
2021/01/30 12:47:55;;;;;;;5.70;1.60;;;6.60;99.90;;;;;;5013308;28;20924;-83
2021/01/30 12:50:24;;;;;;;8.23;1.70;;;6.70;99.90;;;;;;5013461;28;20452;-88
2021/01/30 12:52:50;;;;;;;6.90;1.93;;;7.00;99.90;;;;;;5013366;28;20440;-87
2021/01/30 12:55:17;;;;;;;4.60;2.00;;;6.80;99.90;;;;;;5012563;28;20514;-85
2021/01/30 12:57:44;;;;;;;6.00;3.17;;;6.90;99.90;;;;;;5013624;28;20976;-87
2021/01/30 13:00:13;;;;;;;2.20;1.73;;;6.90;99.90;;;;;;5013764;28;20532;-86
2021/01/30 13:02:40;;;;;;;6.30;2.07;;;7.10;99.90;;;;;;5013579;28;20452;-90
2021/01/30 13:05:07;;;;;;;4.63;2.20;;;6.90;99.90;;;;;;5014387;28;20492;-86
2021/01/30 13:07:33;;;;;;;3.20;2.23;;;7.20;99.90;;;;;;5013448;28;20448;-88
2021/01/30 13:10:00;;;;;;;8.27;2.50;;;7.00;99.90;;;;;;5012490;28;20452;-86
2021/01/30 13:12:26;;;;;;;4.03;2.30;;;6.70;99.90;;;;;;5013540;28;20445;-84
2021/01/30 13:14:53;;;;;;;6.33;1.83;;;6.80;99.90;;;;;;5013365;28;20456;-86
2021/01/30 13:17:19;;;;;;;8.97;2.20;;;6.70;99.90;;;;;;5013292;28;20546;-84
2021/01/30 13:19:46;;;;;;;6.97;2.33;;;6.70;99.90;;;;;;5012743;28;20447;-84
2021/01/30 13:22:13;;;;;;;5.93;2.60;;;6.50;99.90;;;;;;5013277;28;20459;-84
2021/01/30 13:24:42;;;;;;;6.17;2.60;;;6.30;99.90;;;;;;5012061;28;20464;-86
2021/01/30 13:27:09;;;;;;;8.77;2.27;;;6.00;99.90;;;;;;5013313;28;20452;-83
2021/01/30 13:29:36;;;;;;;9.73;2.23;;;;;;;;;;5012824;28;20452;-83